Details for Emirates at OMDB




Go Back


Latest METAR
Local Time

OMDB 061800Z 24005KT CAVOK 25/17 Q1013 NOSIG
06/04/2020, 22:55:21

Description
Results
Emirates Logo
Number of Pilots based at OMDB
1 Pilots Based here
Number of Emirates Flights Departed from OMDB
15 Flights Departed
Number of Emirates Flights Arrived at OMDB
19 Flights Arrived
Number of Emirates Schedules Departing from OMDB
286 Schedules
Number of Emirates Schedules Arriving at OMDB
279 Schedules
Number of Emirates Schedules Departing from OMDB availible today
247 Schedules Today
Number of Emirates Schedules Arriving at OMDB availible today
250 Schedules Today
Average Landing Rate at OMDB
-225 fpm
Emirates Average Landing Rate at OMDB
-211 fpm
Total Fuel Purchased at OMDB by Emirates
819,487.82 kgs / 1,806,642.85 lbs

Pilots Based at OMDB


Pilot ID
Pilot Name
Pilot Rank
No. of Flights
No. of Flying Hours
Adam Noble
108
423.25